Time,TemperatureF,DewpointF,PressureIn,WindDirection,WindDirectionDegrees,WindSpeedMPH,WindSpeedGustMPH,Humidity,HourlyPrecipIn,Conditions,Clouds,dailyrainin,SoftwareType,DateUTC
2013-09-04 00:02:00,59.4,51.4,30.18,West,270,0.0,0.0,75,0.00,,,0.00,meteohub,2013-09-04 05:02:00,
2013-09-04 00:07:00,59.2,51.3,30.15,West,270,0.0,0.0,75,0.00,,,0.00,meteohub,2013-09-04 05:07:00,
2013-09-04 00:12:00,59.0,51.1,30.15,West,270,0.0,0.0,75,0.00,,,0.00,meteohub,2013-09-04 05:12:00,
2013-09-04 00:17:00,59.0,51.1,30.15,West,270,0.0,0.0,75,0.00,,,0.00,meteohub,2013-09-04 05:17:00,
2013-09-04 00:22:00,59.0,51.1,30.18,West,270,0.0,0.0,75,0.00,,,0.00,meteohub,2013-09-04 05:22:00,
2013-09-04 00:27:00,58.8,51.3,30.18,West,270,0.0,0.0,76,0.00,,,0.00,meteohub,2013-09-04 05:27:00,
2013-09-04 00:32:00,58.8,51.3,30.18,West,270,0.0,0.0,76,0.00,,,0.00,meteohub,2013-09-04 05:32:00,
2013-09-04 00:37:00,58.8,51.3,30.15,West,270,0.0,0.0,76,0.00,,,0.00,meteohub,2013-09-04 05:37:00,
2013-09-04 00:42:00,58.8,51.3,30.15,West,270,0.0,0.0,76,0.00,,,0.00,meteohub,2013-09-04 05:42:00,
2013-09-04 00:48:00,58.5,50.5,30.15,West,270,0.0,0.0,75,0.00,,,0.00,meteohub,2013-09-04 05:48:00,
2013-09-04 00:53:00,58.5,50.5,30.18,West,270,0.0,0.0,75,0.00,,,0.00,meteohub,2013-09-04 05:53:00,
2013-09-04 00:58:00,58.5,51.3,30.18,West,270,0.0,0.0,77,0.00,,,0.00,meteohub,2013-09-04 05:58:00,
2013-09-04 01:03:00,58.5,51.3,30.18,West,270,0.0,0.0,77,0.00,,,0.00,meteohub,2013-09-04 06:03:00,
2013-09-04 01:08:00,58.5,51.3,30.18,West,270,0.0,0.0,77,0.00,,,0.00,meteohub,2013-09-04 06:08:00,
2013-09-04 01:13:00,58.3,50.7,30.18,West,270,0.0,0.0,76,0.00,,,0.00,meteohub,2013-09-04 06:13:00,
2013-09-04 01:18:00,58.1,50.5,30.18,West,270,0.0,0.0,76,0.00,,,0.00,meteohub,2013-09-04 06:18:00,
2013-09-04 01:23:00,57.9,50.0,30.18,West,270,0.0,0.0,75,0.00,,,0.00,meteohub,2013-09-04 06:23:00,
2013-09-04 01:28:00,57.9,50.4,30.18,West,270,0.0,0.0,76,0.00,,,0.00,meteohub,2013-09-04 06:28:00,
2013-09-04 01:33:00,57.7,50.2,30.18,West,270,0.0,0.0,76,0.00,,,0.00,meteohub,2013-09-04 06:33:00,
2013-09-04 01:38:00,57.7,50.2,30.18,West,270,0.0,0.0,76,0.00,,,0.00,meteohub,2013-09-04 06:38:00,
2013-09-04 01:43:00,57.6,50.0,30.18,West,270,0.0,0.0,76,0.00,,,0.00,meteohub,2013-09-04 06:43:00,
2013-09-04 01:48:00,57.6,50.0,30.18,West,270,0.0,0.0,76,0.00,,,0.00,meteohub,2013-09-04 06:48:00,
2013-09-04 01:53:00,57.6,50.4,30.18,West,270,0.0,0.0,77,0.00,,,0.00,meteohub,2013-09-04 06:53:00,
2013-09-04 01:58:00,57.6,50.4,30.18,West,270,0.0,0.0,77,0.00,,,0.00,meteohub,2013-09-04 06:58:00,
2013-09-04 02:03:00,57.6,50.4,30.18,West,270,0.0,0.0,77,0.00,,,0.00,meteohub,2013-09-04 07:03:00,
2013-09-04 02:08:00,57.4,50.2,30.18,West,270,0.0,0.0,77,0.00,,,0.00,meteohub,2013-09-04 07:08:00,
2013-09-04 02:13:00,57.4,50.2,30.18,West,270,0.0,0.0,77,0.00,,,0.00,meteohub,2013-09-04 07:13:00,
2013-09-04 02:18:00,57.4,50.2,30.18,West,270,0.0,0.0,77,0.00,,,0.00,meteohub,2013-09-04 07:18:00,
2013-09-04 02:23:00,57.2,50.4,30.21,West,270,0.0,0.0,78,0.00,,,0.00,meteohub,2013-09-04 07:23:00,
2013-09-04 02:28:00,57.2,50.4,30.21,West,270,0.0,0.0,78,0.00,,,0.00,meteohub,2013-09-04 07:28:00,
2013-09-04 02:33:00,57.4,50.5,30.21,West,270,0.0,0.0,78,0.00,,,0.00,meteohub,2013-09-04 07:33:00,
2013-09-04 02:38:00,57.4,50.9,30.18,West,270,0.0,0.0,79,0.00,,,0.00,meteohub,2013-09-04 07:38:00,
2013-09-04 02:43:00,57.4,50.9,30.18,West,270,0.0,0.0,79,0.00,,,0.00,meteohub,2013-09-04 07:43:00,
2013-09-04 02:48:00,57.4,50.9,30.18,West,270,0.0,0.0,79,0.00,,,0.00,meteohub,2013-09-04 07:48:00,
2013-09-04 02:53:00,57.4,50.9,30.21,West,270,0.0,0.0,79,0.00,,,0.00,meteohub,2013-09-04 07:53:00,
2013-09-04 02:58:00,57.6,51.4,30.21,West,270,0.0,0.0,80,0.00,,,0.00,meteohub,2013-09-04 07:58:00,
2013-09-04 03:03:00,57.6,51.4,30.21,West,270,0.0,0.0,80,0.00,,,0.00,meteohub,2013-09-04 08:03:00,
2013-09-04 03:08:00,57.6,51.4,30.21,West,270,0.0,0.0,80,0.00,,,0.00,meteohub,2013-09-04 08:08:00,
2013-09-04 03:13:00,57.4,51.3,30.21,West,270,0.0,0.0,80,0.00,,,0.00,meteohub,2013-09-04 08:13:00,
2013-09-04 03:18:00,57.4,51.3,30.21,West,270,0.0,0.0,80,0.00,,,0.00,meteohub,2013-09-04 08:18:00,
2013-09-04 03:23:00,57.2,51.1,30.21,West,270,0.0,0.0,80,0.00,,,0.00,meteohub,2013-09-04 08:23:00,
2013-09-04 03:28:00,56.8,50.4,30.21,West,270,0.0,0.0,79,0.00,,,0.00,meteohub,2013-09-04 08:28:00,
2013-09-04 03:33:00,56.7,50.2,30.21,West,270,0.0,0.0,79,0.00,,,0.00,meteohub,2013-09-04 08:33:00,
2013-09-04 03:38:00,56.7,49.8,30.24,West,270,0.0,0.0,78,0.00,,,0.00,meteohub,2013-09-04 08:38:00,
2013-09-04 03:43:00,56.5,50.0,30.24,West,270,0.0,0.0,79,0.00,,,0.00,meteohub,2013-09-04 08:43:00,
2013-09-04 03:48:00,56.5,50.0,30.24,West,270,0.0,0.0,79,0.00,,,0.00,meteohub,2013-09-04 08:48:00,
2013-09-04 03:53:00,56.5,50.0,30.24,West,270,0.0,0.0,79,0.00,,,0.00,meteohub,2013-09-04 08:53:00,
2013-09-04 03:58:00,56.3,49.8,30.24,West,270,0.0,0.0,79,0.00,,,0.00,meteohub,2013-09-04 08:58:00,
2013-09-04 04:03:00,56.1,49.6,30.24,West,270,0.0,0.0,79,0.00,,,0.00,meteohub,2013-09-04 09:03:00,
2013-09-04 04:08:00,55.9,49.5,30.21,West,270,0.0,0.0,79,0.00,,,0.00,meteohub,2013-09-04 09:08:00,
2013-09-04 04:13:00,55.9,49.5,30.21,West,270,0.0,0.0,79,0.00,,,0.00,meteohub,2013-09-04 09:13:00,
2013-09-04 04:18:00,55.8,49.3,30.21,West,270,0.0,0.0,79,0.00,,,0.00,meteohub,2013-09-04 09:18:00,
2013-09-04 04:23:00,55.8,49.3,30.24,West,270,0.0,0.0,79,0.00,,,0.00,meteohub,2013-09-04 09:23:00,
2013-09-04 04:28:00,55.6,49.1,30.24,West,270,0.0,0.0,79,0.00,,,0.00,meteohub,2013-09-04 09:28:00,
2013-09-04 04:33:00,55.6,49.1,30.24,West,270,0.0,0.0,79,0.00,,,0.00,meteohub,2013-09-04 09:33:00,
2013-09-04 04:38:00,55.6,49.5,30.24,WSW,248,0.0,0.0,80,0.00,,,0.00,meteohub,2013-09-04 09:38:00,
2013-09-04 04:43:00,55.8,49.6,30.24,WSW,248,0.0,0.0,80,0.00,,,0.00,meteohub,2013-09-04 09:43:00,
2013-09-04 04:48:00,55.9,50.2,30.24,WSW,248,0.0,0.0,81,0.00,,,0.00,meteohub,2013-09-04 09:48:00,
2013-09-04 04:53:00,56.1,50.7,30.27,WSW,248,0.0,0.0,82,0.00,,,0.00,meteohub,2013-09-04 09:53:00,
2013-09-04 04:58:00,56.3,51.3,30.27,WSW,248,0.0,0.0,83,0.00,,,0.00,meteohub,2013-09-04 09:58:00,
2013-09-04 05:03:00,56.5,51.4,30.27,WSW,248,0.0,0.0,83,0.00,,,0.00,meteohub,2013-09-04 10:03:00,
2013-09-04 05:08:00,56.7,51.6,30.24,WSW,248,0.0,0.0,83,0.00,,,0.00,meteohub,2013-09-04 10:08:00,
2013-09-04 05:13:00,56.7,51.6,30.24,WSW,248,0.0,0.0,83,0.00,,,0.00,meteohub,2013-09-04 10:13:00,
2013-09-04 05:18:00,56.8,51.8,30.24,WSW,248,0.0,0.0,83,0.00,,,0.00,meteohub,2013-09-04 10:18:00,
2013-09-04 05:23:00,56.8,51.8,30.24,SW,225,0.0,0.0,83,0.00,,,0.00,meteohub,2013-09-04 10:23:00,
2013-09-04 05:28:00,57.0,52.0,30.24,WSW,248,0.0,0.0,83,0.00,,,0.00,meteohub,2013-09-04 10:28:00,
2013-09-04 05:33:00,57.0,52.2,30.24,West,270,0.0,0.0,84,0.00,,,0.00,meteohub,2013-09-04 10:33:00,
2013-09-04 05:38:00,57.2,52.2,30.24,WSW,248,0.0,0.0,83,0.00,,,0.00,meteohub,2013-09-04 10:38:00,
2013-09-04 05:44:00,57.2,52.2,30.24,WSW,248,0.0,0.0,83,0.00,,,0.00,meteohub,2013-09-04 10:44:00,
2013-09-04 05:49:00,57.2,52.2,30.24,WSW,248,0.0,0.0,83,0.00,,,0.00,meteohub,2013-09-04 10:49:00,
2013-09-04 05:54:00,57.2,52.2,30.24,WSW,248,0.0,0.0,83,0.00,,,0.00,meteohub,2013-09-04 10:54:00,
2013-09-04 05:59:00,57.2,52.2,30.24,WSW,248,0.0,0.0,83,0.00,,,0.00,meteohub,2013-09-04 10:59:00,
2013-09-04 06:04:00,57.2,52.2,30.24,WSW,248,0.0,0.0,83,0.00,,,0.00,meteohub,2013-09-04 11:04:00,
2013-09-04 06:09:00,57.2,52.2,30.24,WSW,248,0.0,0.0,83,0.00,,,0.00,meteohub,2013-09-04 11:09:00,
2013-09-04 06:14:00,57.4,52.3,30.24,West,270,0.0,0.0,83,0.00,,,0.00,meteohub,2013-09-04 11:14:00,
2013-09-04 06:19:00,57.2,52.2,30.24,West,270,0.0,0.0,83,0.00,,,0.00,meteohub,2013-09-04 11:19:00,
2013-09-04 06:24:00,57.4,52.3,30.24,West,270,0.0,0.0,83,0.00,,,0.00,meteohub,2013-09-04 11:24:00,
2013-09-04 06:29:00,57.4,52.3,30.24,WSW,248,0.0,0.0,83,0.00,,,0.00,meteohub,2013-09-04 11:29:00,
2013-09-04 06:34:00,57.4,52.3,30.24,West,270,0.0,0.0,83,0.00,,,0.00,meteohub,2013-09-04 11:34:00,
2013-09-04 06:39:00,57.7,52.9,30.24,WSW,248,0.0,0.0,84,0.00,,,0.00,meteohub,2013-09-04 11:39:00,
2013-09-04 06:44:00,57.9,53.1,30.24,WSW,248,0.0,0.0,84,0.00,,,0.00,meteohub,2013-09-04 11:44:00,
2013-09-04 06:49:00,58.1,53.2,30.24,WSW,248,2.0,0.0,84,0.00,,,0.00,meteohub,2013-09-04 11:49:00,
2013-09-04 06:54:00,58.5,53.2,30.24,West,270,0.0,7.0,83,0.00,,,0.00,meteohub,2013-09-04 11:54:00,
2013-09-04 06:59:00,58.6,53.4,30.24,NW,315,2.0,7.0,83,0.00,,,0.00,meteohub,2013-09-04 11:59:00,
2013-09-04 07:04:00,58.8,53.6,30.24,West,270,0.0,7.0,83,0.00,,,0.00,meteohub,2013-09-04 12:04:00,
2013-09-04 07:09:00,59.2,54.0,30.24,WSW,248,0.0,4.0,83,0.00,,,0.00,meteohub,2013-09-04 12:09:00,
2013-09-04 07:14:00,59.4,53.8,30.24,West,270,0.0,2.0,82,0.00,,,0.00,meteohub,2013-09-04 12:14:00,
2013-09-04 07:19:00,59.5,54.0,30.24,West,270,0.0,2.0,82,0.00,,,0.00,meteohub,2013-09-04 12:19:00,
2013-09-04 07:24:00,59.7,54.0,30.27,WSW,248,0.0,4.0,81,0.00,,,0.00,meteohub,2013-09-04 12:24:00,
2013-09-04 07:29:00,59.9,54.1,30.27,West,270,0.0,4.0,81,0.00,,,0.00,meteohub,2013-09-04 12:29:00,
2013-09-04 07:34:00,60.1,54.3,30.27,WSW,248,0.0,4.0,81,0.00,,,0.00,meteohub,2013-09-04 12:34:00,
2013-09-04 07:39:00,60.6,54.7,30.27,SW,225,0.0,2.0,81,0.00,,,0.00,meteohub,2013-09-04 12:39:00,
2013-09-04 07:44:00,60.8,54.7,30.27,SW,225,2.0,2.0,80,0.00,,,0.00,meteohub,2013-09-04 12:44:00,
2013-09-04 07:49:00,61.0,54.5,30.27,SSW,202,3.0,3.0,79,0.00,,,0.00,meteohub,2013-09-04 12:49:00,
2013-09-04 07:54:00,61.2,54.7,30.27,WSW,248,0.0,6.0,79,0.00,,,0.00,meteohub,2013-09-04 12:54:00,
2013-09-04 07:59:00,61.3,54.5,30.27,West,270,0.0,6.0,78,0.00,,,0.00,meteohub,2013-09-04 12:59:00,
2013-09-04 08:04:00,61.5,54.7,30.27,West,270,0.0,6.0,78,0.00,,,0.00,meteohub,2013-09-04 13:04:00,
2013-09-04 08:09:00,61.7,54.9,30.27,WSW,248,0.0,5.0,78,0.00,,,0.00,meteohub,2013-09-04 13:09:00,
2013-09-04 08:14:00,62.1,55.4,30.27,West,270,0.0,6.0,79,0.00,,,0.00,meteohub,2013-09-04 13:14:00,
2013-09-04 08:19:00,62.2,55.6,30.27,WSW,248,2.0,6.0,79,0.00,,,0.00,meteohub,2013-09-04 13:19:00,
2013-09-04 08:24:00,62.6,55.6,30.27,West,270,8.0,8.0,78,0.00,,,0.00,meteohub,2013-09-04 13:24:00,
2013-09-04 08:29:00,62.8,55.4,30.27,WSW,248,0.0,5.0,77,0.00,,,0.00,meteohub,2013-09-04 13:29:00,
2013-09-04 08:34:00,63.0,55.2,30.27,WSW,248,0.0,8.0,76,0.00,,,0.00,meteohub,2013-09-04 13:34:00,
2013-09-04 08:39:00,63.1,55.4,30.27,WSW,248,0.0,8.0,76,0.00,,,0.00,meteohub,2013-09-04 13:39:00,
2013-09-04 08:45:00,63.3,55.6,30.27,West,270,0.0,5.0,76,0.00,,,0.00,meteohub,2013-09-04 13:45:00,
2013-09-04 08:50:00,63.7,55.9,30.27,WSW,248,0.0,5.0,76,0.00,,,0.00,meteohub,2013-09-04 13:50:00,
2013-09-04 08:55:00,64.0,56.3,30.27,WSW,248,0.0,4.0,76,0.00,,,0.00,meteohub,2013-09-04 13:55:00,
2013-09-04 09:00:00,64.2,56.5,30.27,West,270,0.0,3.0,76,0.00,,,0.00,meteohub,2013-09-04 14:00:00,
2013-09-04 09:05:00,64.4,56.3,30.27,SW,225,0.0,3.0,75,0.00,,,0.00,meteohub,2013-09-04 14:05:00,
2013-09-04 09:10:00,64.6,56.5,30.27,West,270,0.0,4.0,75,0.00,,,0.00,meteohub,2013-09-04 14:10:00,
2013-09-04 09:15:00,64.9,56.8,30.27,WNW,292,4.0,4.0,75,0.00,,,0.00,meteohub,2013-09-04 14:15:00,
2013-09-04 09:20:00,65.1,57.0,30.27,WSW,248,0.0,5.0,75,0.00,,,0.00,meteohub,2013-09-04 14:20:00,
2013-09-04 09:25:00,65.5,57.4,30.27,WSW,248,4.0,5.0,75,0.00,,,0.00,meteohub,2013-09-04 14:25:00,
2013-09-04 09:30:00,65.7,57.2,30.27,WSW,248,0.0,5.0,74,0.00,,,0.00,meteohub,2013-09-04 14:30:00,
2013-09-04 09:35:00,65.8,56.5,30.27,SW,225,0.0,4.0,72,0.00,,,0.00,meteohub,2013-09-04 14:35:00,
2013-09-04 09:40:00,66.2,56.8,30.27,West,270,2.0,6.0,72,0.00,,,0.00,meteohub,2013-09-04 14:40:00,
2013-09-04 09:45:00,66.4,56.7,30.27,WSW,248,4.0,7.0,71,0.00,,,0.00,meteohub,2013-09-04 14:45:00,
2013-09-04 09:50:00,66.7,56.7,30.27,West,270,6.0,7.0,70,0.00,,,0.00,meteohub,2013-09-04 14:50:00,
2013-09-04 09:55:00,66.9,56.5,30.27,WSW,248,5.0,7.0,69,0.00,,,0.00,meteohub,2013-09-04 14:55:00,
2013-09-04 10:00:00,67.1,56.7,30.27,West,270,0.0,10.0,69,0.00,,,0.00,meteohub,2013-09-04 15:00:00,
2013-09-04 10:05:00,67.3,56.3,30.27,West,270,4.0,10.0,68,0.00,,,0.00,meteohub,2013-09-04 15:05:00,
2013-09-04 10:10:00,67.6,57.2,30.27,WSW,248,4.0,10.0,69,0.00,,,0.00,meteohub,2013-09-04 15:10:00,
2013-09-04 10:15:00,68.2,55.9,30.27,SW,225,0.0,10.0,65,0.00,,,0.00,meteohub,2013-09-04 15:15:00,
2013-09-04 10:20:00,68.4,56.1,30.27,WNW,292,5.0,7.0,65,0.00,,,0.00,meteohub,2013-09-04 15:20:00,
2013-09-04 10:25:00,68.5,56.3,30.27,WSW,248,0.0,6.0,65,0.00,,,0.00,meteohub,2013-09-04 15:25:00,
2013-09-04 10:30:00,68.7,56.5,30.27,WSW,248,0.0,6.0,65,0.00,,,0.00,meteohub,2013-09-04 15:30:00,
2013-09-04 10:35:00,68.7,56.1,30.27,West,270,6.0,7.0,64,0.00,,,0.00,meteohub,2013-09-04 15:35:00,
2013-09-04 10:40:00,69.3,56.5,30.27,West,270,2.0,7.0,64,0.00,,,0.00,meteohub,2013-09-04 15:40:00,
2013-09-04 10:45:00,69.4,56.3,30.27,WSW,248,4.0,6.0,63,0.00,,,0.00,meteohub,2013-09-04 15:45:00,
2013-09-04 10:50:00,69.4,56.3,30.27,WSW,248,0.0,5.0,63,0.00,,,0.00,meteohub,2013-09-04 15:50:00,
2013-09-04 10:55:00,69.8,54.9,30.27,West,270,0.0,6.0,59,0.00,,,0.00,meteohub,2013-09-04 15:55:00,
2013-09-04 11:00:00,70.2,54.1,30.27,WNW,292,2.0,7.0,57,0.00,,,0.00,meteohub,2013-09-04 16:00:00,
2013-09-04 11:05:00,70.3,54.9,30.27,West,270,0.0,9.0,58,0.00,,,0.00,meteohub,2013-09-04 16:05:00,
2013-09-04 11:10:00,70.5,55.6,30.27,SW,225,0.0,9.0,59,0.00,,,0.00,meteohub,2013-09-04 16:10:00,
2013-09-04 11:15:00,70.7,54.7,30.27,SSW,202,2.0,6.0,57,0.00,,,0.00,meteohub,2013-09-04 16:15:00,
2013-09-04 11:20:00,71.1,54.5,30.27,West,270,2.0,6.0,56,0.00,,,0.00,meteohub,2013-09-04 16:20:00,
2013-09-04 11:25:00,71.1,54.5,30.27,West,270,0.0,6.0,56,0.00,,,0.00,meteohub,2013-09-04 16:25:00,
2013-09-04 11:30:00,71.2,55.2,30.27,SW,225,0.0,4.0,57,0.00,,,0.00,meteohub,2013-09-04 16:30:00,
2013-09-04 11:35:00,71.6,55.0,30.27,SW,225,2.0,4.0,56,0.00,,,0.00,meteohub,2013-09-04 16:35:00,
2013-09-04 11:40:00,71.8,55.8,30.27,SW,225,0.0,6.0,57,0.00,,,0.00,meteohub,2013-09-04 16:40:00,
2013-09-04 11:45:00,72.1,55.6,30.27,SSW,202,0.0,6.0,56,0.00,,,0.00,meteohub,2013-09-04 16:45:00,
2013-09-04 11:50:00,72.5,55.9,30.27,WSW,248,0.0,6.0,56,0.00,,,0.00,meteohub,2013-09-04 16:50:00,
2013-09-04 11:55:00,72.7,54.5,30.27,WSW,248,0.0,6.0,53,0.00,,,0.00,meteohub,2013-09-04 16:55:00,
2013-09-04 12:00:00,72.9,55.2,30.27,South,180,4.0,6.0,54,0.00,,,0.00,meteohub,2013-09-04 17:00:00,
2013-09-04 12:06:00,73.0,54.9,30.27,WSW,248,0.0,6.0,53,0.00,,,0.00,meteohub,2013-09-04 17:06:00,
2013-09-04 12:11:00,73.2,54.5,30.27,West,270,0.0,6.0,52,0.00,,,0.00,meteohub,2013-09-04 17:11:00,
2013-09-04 12:16:00,73.2,54.0,30.27,West,270,2.0,6.0,51,0.00,,,0.00,meteohub,2013-09-04 17:16:00,
2013-09-04 12:21:00,73.4,54.1,30.27,West,270,0.0,6.0,51,0.00,,,0.00,meteohub,2013-09-04 17:21:00,
2013-09-04 12:26:00,73.4,54.1,30.27,West,270,0.0,6.0,51,0.00,,,0.00,meteohub,2013-09-04 17:26:00,
2013-09-04 12:31:00,73.8,54.5,30.27,West,270,7.0,7.0,51,0.00,,,0.00,meteohub,2013-09-04 17:31:00,
2013-09-04 12:36:00,73.8,54.0,30.27,West,270,0.0,7.0,50,0.00,,,0.00,meteohub,2013-09-04 17:36:00,
2013-09-04 12:41:00,73.9,54.7,30.27,WSW,248,0.0,7.0,51,0.00,,,0.00,meteohub,2013-09-04 17:41:00,
2013-09-04 12:46:00,74.3,53.4,30.27,West,270,0.0,7.0,48,0.00,,,0.00,meteohub,2013-09-04 17:46:00,
2013-09-04 12:51:00,74.5,54.7,30.27,West,270,0.0,9.0,50,0.00,,,0.00,meteohub,2013-09-04 17:51:00,
2013-09-04 12:56:00,74.5,54.7,30.27,West,270,0.0,9.0,50,0.00,,,0.00,meteohub,2013-09-04 17:56:00,
2013-09-04 13:01:00,74.7,54.3,30.27,SW,225,7.0,7.0,49,0.00,,,0.00,meteohub,2013-09-04 18:01:00,
2013-09-04 13:06:00,74.8,55.0,30.27,West,270,0.0,7.0,50,0.00,,,0.00,meteohub,2013-09-04 18:06:00,
2013-09-04 13:11:00,74.7,54.3,30.27,WSW,248,4.0,7.0,49,0.00,,,0.00,meteohub,2013-09-04 18:11:00,
2013-09-04 13:16:00,74.8,55.0,30.27,West,270,0.0,7.0,50,0.00,,,0.00,meteohub,2013-09-04 18:16:00,
2013-09-04 13:21:00,75.0,55.8,30.27,West,270,0.0,5.0,51,0.00,,,0.00,meteohub,2013-09-04 18:21:00,
2013-09-04 13:26:00,75.0,55.0,30.27,SSE,158,0.0,9.0,50,0.00,,,0.00,meteohub,2013-09-04 18:26:00,
2013-09-04 13:31:00,75.0,55.0,30.27,West,270,0.0,9.0,50,0.00,,,0.00,meteohub,2013-09-04 18:31:00,
2013-09-04 13:36:00,75.2,55.2,30.27,West,270,0.0,9.0,50,0.00,,,0.00,meteohub,2013-09-04 18:36:00,
2013-09-04 13:41:00,75.6,54.5,30.27,WSW,248,0.0,6.0,48,0.00,,,0.00,meteohub,2013-09-04 18:41:00,
2013-09-04 13:46:00,75.9,54.9,30.27,WSW,248,6.0,6.0,48,0.00,,,0.00,meteohub,2013-09-04 18:46:00,
2013-09-04 13:51:00,76.1,55.0,30.27,WSW,248,0.0,10.0,48,0.00,,,0.00,meteohub,2013-09-04 18:51:00,
2013-09-04 13:56:00,76.1,54.5,30.27,West,270,4.0,10.0,47,0.00,,,0.00,meteohub,2013-09-04 18:56:00,
2013-09-04 14:01:00,76.3,54.5,30.27,SW,225,6.0,8.0,47,0.00,,,0.00,meteohub,2013-09-04 19:01:00,
2013-09-04 14:06:00,76.1,55.0,30.27,WSW,248,0.0,6.0,48,0.00,,,0.00,meteohub,2013-09-04 19:06:00,
2013-09-04 14:11:00,76.3,55.8,30.27,WSW,248,0.0,6.0,49,0.00,,,0.00,meteohub,2013-09-04 19:11:00,
2013-09-04 14:16:00,76.3,55.2,30.27,West,270,0.0,6.0,48,0.00,,,0.00,meteohub,2013-09-04 19:16:00,
2013-09-04 14:21:00,76.5,55.4,30.27,West,270,0.0,8.0,48,0.00,,,0.00,meteohub,2013-09-04 19:21:00,
2013-09-04 14:26:00,76.6,56.1,30.27,NW,315,0.0,8.0,49,0.00,,,0.00,meteohub,2013-09-04 19:26:00,
2013-09-04 14:31:00,76.6,56.1,30.27,West,270,0.0,8.0,49,0.00,,,0.00,meteohub,2013-09-04 19:31:00,
2013-09-04 14:36:00,76.6,56.1,30.27,West,270,2.0,6.0,49,0.00,,,0.00,meteohub,2013-09-04 19:36:00,
2013-09-04 14:41:00,76.8,55.0,30.27,WNW,292,4.0,6.0,47,0.00,,,0.00,meteohub,2013-09-04 19:41:00,
2013-09-04 14:46:00,77.2,55.4,30.27,WSW,248,0.0,6.0,47,0.00,,,0.00,meteohub,2013-09-04 19:46:00,
2013-09-04 14:51:00,77.2,54.9,30.24,SW,225,4.0,6.0,46,0.00,,,0.00,meteohub,2013-09-04 19:51:00,
2013-09-04 14:56:00,77.2,55.4,30.24,West,270,0.0,6.0,47,0.00,,,0.00,meteohub,2013-09-04 19:56:00,
2013-09-04 15:01:00,77.2,55.4,30.24,West,270,0.0,6.0,47,0.00,,,0.00,meteohub,2013-09-04 20:01:00,
2013-09-04 15:06:00,77.4,56.1,30.24,West,270,0.0,6.0,48,0.00,,,0.00,meteohub,2013-09-04 20:06:00,
2013-09-04 15:11:00,77.5,55.2,30.24,WSW,248,0.0,6.0,46,0.00,,,0.00,meteohub,2013-09-04 20:11:00,
2013-09-04 15:16:00,77.2,55.4,30.24,West,270,0.0,6.0,47,0.00,,,0.00,meteohub,2013-09-04 20:16:00,
2013-09-04 15:21:00,77.4,55.6,30.24,WSW,248,0.0,6.0,47,0.00,,,0.00,meteohub,2013-09-04 20:21:00,
2013-09-04 15:26:00,77.4,55.6,30.24,WSW,248,0.0,0.0,47,0.00,,,0.00,meteohub,2013-09-04 20:26:00,
2013-09-04 15:31:00,77.7,55.9,30.24,West,270,0.0,2.0,47,0.00,,,0.00,meteohub,2013-09-04 20:31:00,
2013-09-04 15:36:00,78.1,55.0,30.24,West,270,0.0,4.0,45,0.00,,,0.00,meteohub,2013-09-04 20:36:00,
2013-09-04 15:41:00,78.1,55.6,30.24,West,270,0.0,5.0,46,0.00,,,0.00,meteohub,2013-09-04 20:41:00,
2013-09-04 15:46:00,78.3,55.8,30.24,SW,225,3.0,5.0,46,0.00,,,0.00,meteohub,2013-09-04 20:46:00,
2013-09-04 15:51:00,78.3,56.3,30.24,NNW,338,0.0,5.0,47,0.00,,,0.00,meteohub,2013-09-04 20:51:00,
2013-09-04 15:56:00,78.3,55.8,30.24,WSW,248,0.0,5.0,46,0.00,,,0.00,meteohub,2013-09-04 20:56:00,
2013-09-04 16:01:00,78.3,55.8,30.24,NNW,338,0.0,8.0,46,0.00,,,0.00,meteohub,2013-09-04 21:01:00,
2013-09-04 16:06:00,78.3,55.8,30.24,West,270,0.0,8.0,46,0.00,,,0.00,meteohub,2013-09-04 21:06:00,
2013-09-04 16:11:00,78.3,55.8,30.24,West,270,0.0,8.0,46,0.00,,,0.00,meteohub,2013-09-04 21:11:00,
2013-09-04 16:16:00,78.3,55.8,30.24,SW,225,0.0,3.0,46,0.00,,,0.00,meteohub,2013-09-04 21:16:00,
2013-09-04 16:21:00,78.3,55.8,30.24,West,270,0.0,3.0,46,0.00,,,0.00,meteohub,2013-09-04 21:21:00,
2013-09-04 16:26:00,78.4,55.4,30.24,NW,315,0.0,4.0,45,0.00,,,0.00,meteohub,2013-09-04 21:26:00,
2013-09-04 16:31:00,78.4,55.9,30.24,SW,225,0.0,4.0,46,0.00,,,0.00,meteohub,2013-09-04 21:31:00,
2013-09-04 16:36:00,78.6,55.6,30.24,West,270,0.0,4.0,45,0.00,,,0.00,meteohub,2013-09-04 21:36:00,
2013-09-04 16:41:00,78.6,56.1,30.24,WSW,248,0.0,4.0,46,0.00,,,0.00,meteohub,2013-09-04 21:41:00,
2013-09-04 16:46:00,78.6,56.1,30.24,WSW,248,0.0,4.0,46,0.00,,,0.00,meteohub,2013-09-04 21:46:00,
2013-09-04 16:51:00,78.6,56.1,30.24,West,270,0.0,4.0,46,0.00,,,0.00,meteohub,2013-09-04 21:51:00,
2013-09-04 16:56:00,78.4,56.5,30.24,West,270,0.0,4.0,47,0.00,,,0.00,meteohub,2013-09-04 21:56:00,
2013-09-04 17:01:00,78.4,55.9,30.24,WSW,248,0.0,4.0,46,0.00,,,0.00,meteohub,2013-09-04 22:01:00,
2013-09-04 17:06:00,78.6,56.1,30.21,WSW,248,0.0,2.0,46,0.00,,,0.00,meteohub,2013-09-04 22:06:00,
2013-09-04 17:11:00,78.6,56.1,30.21,West,270,2.0,3.0,46,0.00,,,0.00,meteohub,2013-09-04 22:11:00,
2013-09-04 17:16:00,78.6,56.7,30.21,West,270,0.0,3.0,47,0.00,,,0.00,meteohub,2013-09-04 22:16:00,
2013-09-04 17:21:00,79.0,57.6,30.21,SW,225,0.0,3.0,48,0.00,,,0.00,meteohub,2013-09-04 22:21:00,
2013-09-04 17:26:00,79.0,57.0,30.21,SW,225,0.0,6.0,47,0.00,,,0.00,meteohub,2013-09-04 22:26:00,
2013-09-04 17:31:00,79.0,57.0,30.21,WSW,248,0.0,6.0,47,0.00,,,0.00,meteohub,2013-09-04 22:31:00,
2013-09-04 17:36:00,79.2,57.2,30.21,WSW,248,0.0,6.0,47,0.00,,,0.00,meteohub,2013-09-04 22:36:00,
2013-09-04 17:41:00,79.0,57.0,30.21,SW,225,0.0,0.0,47,0.00,,,0.00,meteohub,2013-09-04 22:41:00,
2013-09-04 17:46:00,78.8,56.8,30.21,West,270,0.0,0.0,47,0.00,,,0.00,meteohub,2013-09-04 22:46:00,
2013-09-04 17:51:00,78.4,57.2,30.21,WSW,248,0.0,0.0,48,0.00,,,0.00,meteohub,2013-09-04 22:51:00,
2013-09-04 17:56:00,78.3,57.0,30.21,West,270,0.0,0.0,48,0.00,,,0.00,meteohub,2013-09-04 22:56:00,
2013-09-04 18:01:00,78.3,57.6,30.21,West,270,0.0,0.0,49,0.00,,,0.00,meteohub,2013-09-04 23:01:00,
2013-09-04 18:06:00,78.3,57.6,30.21,WSW,248,0.0,0.0,49,0.00,,,0.00,meteohub,2013-09-04 23:06:00,
2013-09-04 18:11:00,78.1,57.4,30.21,WSW,248,0.0,0.0,49,0.00,,,0.00,meteohub,2013-09-04 23:11:00,
2013-09-04 18:16:00,77.9,57.7,30.21,SW,225,0.0,0.0,50,0.00,,,0.00,meteohub,2013-09-04 23:16:00,
2013-09-04 18:21:00,77.7,57.6,30.21,WSW,248,0.0,0.0,50,0.00,,,0.00,meteohub,2013-09-04 23:21:00,
2013-09-04 18:27:00,77.7,57.6,30.21,West,270,0.0,0.0,50,0.00,,,0.00,meteohub,2013-09-04 23:27:00,
2013-09-04 18:32:00,77.5,57.9,30.21,WSW,248,0.0,0.0,51,0.00,,,0.00,meteohub,2013-09-04 23:32:00,
2013-09-04 18:37:00,77.4,57.7,30.21,WSW,248,0.0,0.0,51,0.00,,,0.00,meteohub,2013-09-04 23:37:00,
2013-09-04 18:42:00,77.2,58.3,30.21,West,270,0.0,0.0,52,0.00,,,0.00,meteohub,2013-09-04 23:42:00,
2013-09-04 18:47:00,76.8,58.5,30.21,WSW,248,0.0,0.0,53,0.00,,,0.00,meteohub,2013-09-04 23:47:00,
2013-09-04 18:52:00,76.6,58.3,30.21,WSW,248,0.0,0.0,53,0.00,,,0.00,meteohub,2013-09-04 23:52:00,
2013-09-04 18:57:00,76.5,58.6,30.21,WSW,248,0.0,0.0,54,0.00,,,0.00,meteohub,2013-09-04 23:57:00,
2013-09-04 19:02:00,76.5,58.6,30.21,WSW,248,0.0,0.0,54,0.00,,,0.00,meteohub,2013-09-05 00:02:00,
2013-09-04 19:07:00,76.1,58.3,30.21,WSW,248,0.0,0.0,54,0.00,,,0.00,meteohub,2013-09-05 00:07:00,
2013-09-04 19:12:00,76.1,58.8,30.21,WSW,248,0.0,0.0,55,0.00,,,0.00,meteohub,2013-09-05 00:12:00,
2013-09-04 19:17:00,75.7,58.5,30.21,WSW,248,0.0,0.0,55,0.00,,,0.00,meteohub,2013-09-05 00:17:00,
2013-09-04 19:22:00,75.4,58.6,30.21,WSW,248,0.0,0.0,56,0.00,,,0.00,meteohub,2013-09-05 00:22:00,
2013-09-04 19:27:00,75.0,58.8,30.21,WSW,248,0.0,0.0,57,0.00,,,0.00,meteohub,2013-09-05 00:27:00,
2013-09-04 19:32:00,74.8,59.0,30.21,WSW,248,0.0,0.0,58,0.00,,,0.00,meteohub,2013-09-05 00:32:00,
2013-09-04 19:37:00,74.5,58.8,30.21,WSW,248,0.0,0.0,58,0.00,,,0.00,meteohub,2013-09-05 00:37:00,
2013-09-04 19:42:00,74.3,59.0,30.21,WSW,248,0.0,0.0,59,0.00,,,0.00,meteohub,2013-09-05 00:42:00,
2013-09-04 19:47:00,73.9,58.6,30.21,WSW,248,0.0,0.0,59,0.00,,,0.00,meteohub,2013-09-05 00:47:00,
2013-09-04 19:52:00,73.6,58.8,30.21,WSW,248,0.0,0.0,60,0.00,,,0.00,meteohub,2013-09-05 00:52:00,
2013-09-04 19:57:00,73.6,58.8,30.21,WSW,248,0.0,0.0,60,0.00,,,0.00,meteohub,2013-09-05 00:57:00,
2013-09-04 20:02:00,73.6,58.8,30.21,WSW,248,0.0,0.0,60,0.00,,,0.00,meteohub,2013-09-05 01:02:00,
2013-09-04 20:07:00,73.4,58.6,30.24,WSW,248,0.0,0.0,60,0.00,,,0.00,meteohub,2013-09-05 01:07:00,
2013-09-04 20:12:00,73.2,59.0,30.24,WSW,248,0.0,0.0,61,0.00,,,0.00,meteohub,2013-09-05 01:12:00,
2013-09-04 20:17:00,73.0,58.8,30.24,WSW,248,0.0,0.0,61,0.00,,,0.00,meteohub,2013-09-05 01:17:00,
2013-09-04 20:22:00,72.9,59.0,30.24,West,270,0.0,0.0,62,0.00,,,0.00,meteohub,2013-09-05 01:22:00,
2013-09-04 20:27:00,72.5,59.2,30.24,WSW,248,0.0,0.0,63,0.00,,,0.00,meteohub,2013-09-05 01:27:00,
2013-09-04 20:32:00,72.3,59.0,30.24,WSW,248,0.0,0.0,63,0.00,,,0.00,meteohub,2013-09-05 01:32:00,
2013-09-04 20:37:00,72.1,59.4,30.24,WSW,248,0.0,0.0,64,0.00,,,0.00,meteohub,2013-09-05 01:37:00,
2013-09-04 20:42:00,72.1,59.4,30.24,WSW,248,0.0,0.0,64,0.00,,,0.00,meteohub,2013-09-05 01:42:00,
2013-09-04 20:47:00,72.1,59.4,30.24,WSW,248,0.0,0.0,64,0.00,,,0.00,meteohub,2013-09-05 01:47:00,
2013-09-04 20:52:00,72.3,59.5,30.24,West,270,0.0,0.0,64,0.00,,,0.00,meteohub,2013-09-05 01:52:00,
2013-09-04 20:57:00,72.3,59.9,30.24,WSW,248,0.0,0.0,65,0.00,,,0.00,meteohub,2013-09-05 01:57:00,
2013-09-04 21:02:00,72.3,59.9,30.24,WSW,248,0.0,0.0,65,0.00,,,0.00,meteohub,2013-09-05 02:02:00,
2013-09-04 21:07:00,72.1,59.7,30.24,WSW,248,0.0,0.0,65,0.00,,,0.00,meteohub,2013-09-05 02:07:00,
2013-09-04 21:12:00,72.0,59.5,30.24,WSW,248,0.0,0.0,65,0.00,,,0.00,meteohub,2013-09-05 02:12:00,
2013-09-04 21:17:00,71.8,59.9,30.24,WSW,248,0.0,0.0,66,0.00,,,0.00,meteohub,2013-09-05 02:17:00,
2013-09-04 21:22:00,71.6,59.7,30.21,WSW,248,0.0,0.0,66,0.00,,,0.00,meteohub,2013-09-05 02:22:00,
2013-09-04 21:27:00,71.4,59.9,30.21,WSW,248,0.0,0.0,67,0.00,,,0.00,meteohub,2013-09-05 02:27:00,
2013-09-04 21:32:00,71.2,59.7,30.21,WSW,248,0.0,0.0,67,0.00,,,0.00,meteohub,2013-09-05 02:32:00,
2013-09-04 21:37:00,70.9,59.7,30.27,WSW,248,0.0,0.0,68,0.00,,,0.00,meteohub,2013-09-05 02:37:00,
2013-09-04 21:42:00,70.7,59.5,30.27,WSW,248,0.0,0.0,68,0.00,,,0.00,meteohub,2013-09-05 02:42:00,
2013-09-04 21:47:00,70.3,59.4,30.27,WSW,248,0.0,0.0,68,0.00,,,0.00,meteohub,2013-09-05 02:47:00,
2013-09-04 21:52:00,70.2,59.5,30.24,WSW,248,0.0,0.0,69,0.00,,,0.00,meteohub,2013-09-05 02:52:00,
2013-09-04 21:57:00,70.0,59.4,30.24,WSW,248,0.0,0.0,69,0.00,,,0.00,meteohub,2013-09-05 02:57:00,
2013-09-04 22:02:00,70.2,59.9,30.24,WSW,248,0.0,0.0,70,0.00,,,0.00,meteohub,2013-09-05 03:02:00,
2013-09-04 22:07:00,70.2,59.9,30.24,West,270,0.0,0.0,70,0.00,,,0.00,meteohub,2013-09-05 03:07:00,
2013-09-04 22:12:00,70.3,60.1,30.24,West,270,0.0,0.0,70,0.00,,,0.00,meteohub,2013-09-05 03:12:00,
2013-09-04 22:17:00,70.3,60.1,30.24,West,270,0.0,0.0,70,0.00,,,0.00,meteohub,2013-09-05 03:17:00,
2013-09-04 22:22:00,70.2,59.9,30.27,West,270,0.0,0.0,70,0.00,,,0.00,meteohub,2013-09-05 03:22:00,
2013-09-04 22:27:00,70.2,60.3,30.27,West,270,0.0,0.0,71,0.00,,,0.00,meteohub,2013-09-05 03:27:00,
2013-09-04 22:32:00,70.2,60.3,30.27,West,270,0.0,0.0,71,0.00,,,0.00,meteohub,2013-09-05 03:32:00,
2013-09-04 22:37:00,70.3,60.4,30.24,West,270,0.0,0.0,71,0.00,,,0.00,meteohub,2013-09-05 03:37:00,
2013-09-04 22:42:00,70.2,60.3,30.24,West,270,0.0,0.0,71,0.00,,,0.00,meteohub,2013-09-05 03:42:00,
2013-09-04 22:47:00,70.2,60.3,30.24,West,270,0.0,0.0,71,0.00,,,0.00,meteohub,2013-09-05 03:47:00,
2013-09-04 22:52:00,69.8,59.9,30.21,West,270,0.0,0.0,71,0.00,,,0.00,meteohub,2013-09-05 03:52:00,
2013-09-04 22:57:00,69.4,59.7,30.21,West,270,0.0,0.0,71,0.00,,,0.00,meteohub,2013-09-05 03:57:00,
2013-09-04 23:01:00,69.4,59.7,30.21,West,270,0.0,0.0,71,0.00,,,0.00,meteohub,2013-09-05 04:01:00,
2013-09-04 23:03:00,69.4,60.1,30.21,West,270,0.0,0.0,72,0.00,,,0.00,meteohub,2013-09-05 04:03:00,
2013-09-04 23:08:00,69.4,60.1,30.21,West,270,0.0,0.0,72,0.00,,,0.00,meteohub,2013-09-05 04:08:00,
2013-09-04 23:13:00,69.4,60.1,30.21,West,270,0.0,0.0,72,0.00,,,0.00,meteohub,2013-09-05 04:13:00,
2013-09-04 23:18:00,69.4,60.4,30.21,West,270,0.0,0.0,73,0.00,,,0.00,meteohub,2013-09-05 04:18:00,
2013-09-04 23:23:00,69.6,60.6,30.24,West,270,0.0,0.0,73,0.00,,,0.00,meteohub,2013-09-05 04:23:00,
2013-09-04 23:28:00,69.8,60.8,30.24,West,270,0.0,0.0,73,0.00,,,0.00,meteohub,2013-09-05 04:28:00,
2013-09-04 23:33:00,69.6,60.3,30.24,West,270,0.0,0.0,72,0.00,,,0.00,meteohub,2013-09-05 04:33:00,
2013-09-04 23:38:00,69.1,59.7,30.24,West,270,0.0,0.0,72,0.00,,,0.00,meteohub,2013-09-05 04:38:00,
2013-09-04 23:43:00,68.9,59.5,30.24,West,270,0.0,0.0,72,0.00,,,0.00,meteohub,2013-09-05 04:43:00,
2013-09-04 23:48:00,68.5,59.2,30.24,West,270,0.0,0.0,72,0.00,,,0.00,meteohub,2013-09-05 04:48:00,
2013-09-04 23:53:00,68.4,59.0,30.24,West,270,0.0,0.0,72,0.00,,,0.00,meteohub,2013-09-05 04:53:00,
2013-09-04 23:58:00,68.2,58.8,30.24,West,270,0.0,0.0,72,0.00,,,0.00,meteohub,2013-09-05 04:58:00,